Sunday, August 19, 2018, 5:52 PM GMT
Back to Local

CWZS, Amqui , Que.

Location: , , Canada Lat: 48.467
Local Time: 5:52 PM GMT (17:52 GMT) Lon: -67.433
Time Zone: GMT Elev: 544 ft

Show me the last for .
Show Coded

Time T Td Feel RH Dir Speed Gust Alt SLP Vis Weather Sky Remarks
2018-08-19 17:00 74 41 - 30 200° 2 - - 30.14 0 None
2018-08-19 15:00 69 48 - 46 240° 1 - - 30.14 0 None
2018-08-19 14:00 65 50 - 58 280° 2 - - 30.14 0 None
2018-08-19 13:00 59 51 - 73 300° 1 - - 30.14 0 None
2018-08-19 12:00 54 49 - 84 160° 1 - - 30.14 0 None
2018-08-19 11:00 49 46 - 90 140° 1 - - 30.12 0 None
2018-08-19 10:00 45 42 - 89 160° 2 - - 30.10 0 None
2018-08-19 09:00 46 45 - 95 150° 1 - - 30.07 0 None
2018-08-19 08:00 47 45 - 94 160° 2 - - 30.06 0 None
2018-08-19 07:00 48 46 - 93 110° 1 - - 30.04 0 None
2018-08-19 06:00 47 47 - 99 150° 2 - - 30.03 0 None
2018-08-19 05:00 50 47 - 89 130° 1 - - 30.02 0 None
2018-08-19 04:00 52 49 - 88 170° 1 - - 30.01 0 None
2018-08-19 03:00 54 49 - 83 - Calm - - 30.00 0 None
2018-08-19 02:00 58 46 - 64 20° 3 - - 29.99 0 None
2018-08-19 01:00 59 49 - 70 350° 3 - - 29.98 0 None
2018-08-19 00:00 63 50 - 61 330° 5 - - 29.96 0 None
2018-08-18 23:00 70 48 - 46 360° 5 - - 29.94 0 None
2018-08-18 22:00 72 48 76 42 340° 9 - - 29.92 0 None
2018-08-18 21:00 74 50 76 42 20° 7 - - 29.91 0 None
2018-08-18 20:00 74 51 76 43 340° 9 - - 29.90 0 None
2018-08-18 19:00 73 54 76 51 330° 9 - - 29.90 0 None

Support USWX by starting your Amazon purchase here.